createdAt,value
2019-03-24T22:04:50.568Z,82.22
2019-03-24T22:05:50.515Z,82.21
2019-03-24T22:06:52.542Z,82.75
2019-03-24T22:07:52.917Z,82.61
2019-03-24T22:08:53.430Z,82.45
2019-03-24T22:09:53.703Z,82.52
2019-03-24T22:10:54.613Z,82.78
2019-03-24T22:11:54.855Z,82.26
2019-03-24T22:13:11.796Z,82.30
2019-03-24T22:13:54.988Z,82.94
2019-03-24T22:14:56.526Z,83.19
2019-03-24T22:15:55.573Z,82.68
2019-03-24T22:16:56.757Z,83.07
2019-03-24T22:17:57.016Z,83.17
2019-03-24T22:18:57.358Z,83.14
2019-03-24T22:19:57.646Z,83.47
2019-03-24T22:20:57.964Z,83.38
2019-03-24T22:21:59.008Z,83.80
2019-03-24T22:22:59.171Z,83.77
2019-03-24T22:23:59.275Z,84.00
2019-03-24T22:25:00.330Z,83.88
2019-03-24T22:25:59.775Z,83.86
2019-03-24T22:27:00.957Z,83.82
2019-03-24T22:28:03.529Z,84.07
2019-03-24T22:29:00.328Z,83.78
2019-03-24T22:30:01.664Z,83.75
2019-03-24T22:31:02.568Z,83.67
2019-03-24T22:32:04.440Z,83.85
2019-03-24T22:33:02.046Z,83.85
2019-03-24T22:34:02.701Z,83.32
2019-03-24T22:35:04.602Z,83.36
2019-03-24T22:36:08.029Z,83.49
2019-03-24T22:37:15.442Z,84.08
2019-03-24T22:38:06.488Z,83.96
2019-03-24T22:39:07.594Z,83.86
2019-03-24T22:40:07.966Z,84.28
2019-03-24T22:41:08.329Z,84.24
2019-03-24T22:42:09.289Z,84.42
2019-03-24T22:43:09.528Z,84.22
2019-03-24T22:44:09.047Z,84.33
2019-03-24T22:45:10.589Z,84.25
2019-03-24T22:46:10.537Z,84.55
2019-03-24T22:47:12.385Z,84.49
2019-03-24T22:48:12.564Z,84.45
2019-03-24T22:49:13.485Z,84.19
2019-03-24T22:50:14.377Z,84.60
2019-03-24T22:51:14.406Z,84.29
2019-03-24T22:52:14.721Z,84.69
2019-03-24T22:53:15.667Z,84.71
2019-03-24T22:54:15.745Z,84.59
2019-03-24T22:55:16.694Z,84.76
2019-03-24T22:56:15.699Z,84.60
2019-03-24T22:57:16.779Z,84.74
2019-03-24T22:58:17.484Z,84.81
2019-03-24T22:59:17.122Z,84.97
2019-03-24T22:59:25.742Z,85.27
2019-03-24T23:00:25.839Z,85.30
2019-03-24T23:01:26.041Z,85.33
2019-03-24T23:02:26.606Z,85.18
2019-03-24T23:03:27.740Z,84.77
2019-03-24T23:04:30.365Z,84.91
2019-03-24T23:05:29.514Z,85.20
2019-03-24T23:06:27.510Z,85.05
2019-03-24T23:07:28.772Z,85.57
2019-03-24T23:08:29.677Z,85.46
2019-03-24T23:09:28.958Z,85.61
2019-03-24T23:10:30.331Z,85.83
2019-03-24T23:11:30.361Z,85.76
2019-03-24T23:12:30.480Z,86.19
2019-03-24T23:13:30.660Z,85.75
2019-03-24T23:14:30.761Z,85.58
2019-03-24T23:15:31.143Z,86.35
2019-03-24T23:16:31.295Z,86.28
2019-03-24T23:17:31.477Z,86.26
2019-03-24T23:18:32.253Z,86.55
2019-03-24T23:19:32.549Z,86.38
2019-03-24T23:20:32.576Z,86.68
2019-03-24T23:21:33.140Z,86.51
2019-03-24T23:22:33.342Z,86.67
2019-03-24T23:23:34.278Z,86.56
2019-03-24T23:24:35.199Z,86.32
2019-03-24T23:25:35.179Z,86.07
2019-03-24T23:26:36.047Z,86.04
2019-03-24T23:27:36.002Z,86.44
2019-03-24T23:28:37.301Z,86.16
2019-03-24T23:29:37.879Z,85.89
2019-03-24T23:30:38.037Z,86.22
2019-03-24T23:31:38.605Z,85.89
2019-03-24T23:32:39.350Z,85.88
2019-03-24T23:33:39.377Z,86.01
2019-03-24T23:34:40.295Z,85.81
2019-03-24T23:35:40.447Z,86.02
2019-03-24T23:36:41.271Z,86.00
2019-03-24T23:37:42.239Z,86.58
2019-03-24T23:38:44.120Z,86.58
2019-03-24T23:39:42.842Z,86.54
2019-03-24T23:40:43.054Z,86.61
2019-03-24T23:41:44.978Z,86.93
2019-03-24T23:42:45.461Z,86.92
2019-03-24T23:43:45.479Z,86.75
2019-03-24T23:44:45.539Z,87.04
2019-03-24T23:45:45.582Z,87.03
2019-03-24T23:46:46.533Z,87.08
2019-03-24T23:47:46.539Z,86.97
2019-03-24T23:47:55.060Z,87.04
2019-03-24T23:48:56.620Z,87.04
2019-03-24T23:49:56.627Z,87.01
2019-03-24T23:50:57.605Z,87.29
2019-03-24T23:51:58.552Z,87.13
2019-03-24T23:52:58.535Z,87.30
2019-03-24T23:54:00.376Z,87.03
2019-03-24T23:55:00.424Z,87.49
2019-03-24T23:56:01.323Z,87.03
2019-03-24T23:57:02.257Z,86.85
2019-03-24T23:58:02.495Z,87.38
2019-03-24T23:59:02.821Z,87.34
